메인 페이지
METAR-TAF:

METAR-TAF

공항 :

인디애나폴리스, 인디애나, 미국

인디애나폴리스 국제공항

위도: 39-43-30N, 경도: 086-16-55W, 고도: 243m

현재 날씨관측

예보는 27분 전, 20:54시(UTC)에 발표되었습니다.
북북서13kt, 순간 최대 풍속 19kt
온도 13°C
습도 35%
기압 1026 hPa
시정: 16.1km
고도 4500ft 상공 구름 조금
고도 25000ft 상공 구름 보통

METAR: KIND 192054Z 34013G19KT 10SM FEW045 SCT250 13/M02 A3031 RMK AO2 SLP266 T01281017 50004

시각: 17:21 (21:21 UTC)

예보

예보는 51분 전, 20:30시(UTC)에 발표되었습니다.
예보 대상 시간: 19일 21시부터 20일 24시까지 (UTC)
북북서9kt, 순간 최대 풍속 19kt
시정: 10km
고도 5000ft 상공 구름 조금
고도 25000ft 상공 구름 보통
20일 0100시부터 (UTC)
북북서9kt
시정: 10km
맑음
20일 0600시부터 (UTC)
5kt
시정: 10km
맑음

TAF: KIND 192030Z 1921/2024 33009G19KT P6SM FEW050 SCT250 FM200100 34009KT P6SM SKC FM200600 36005KT P6SM SKC

4,000개 이상의 공항 관측 자료 및 예보 (METAR 및 TAF 보고).

지도상에서 검색 가능한 기상관측소가 노란 점과 빨간 점으로 표시되어 있습니다.

기상관측소 명을 보려면 표시 위로 마우스를 이동하세요.

날씨 관측과 예보를 보려면 클릭하세요.

지도 변경 : 확대하려면 엑스 표시가 있는 녹색 버튼, 축소하려면 빼기 표시가 있는 녹색 버튼, 다음 페이지의 지도를 보려면 녹색 화살표를 클릭하세요.


METAR-TAF: